createdAt,value
2018-12-03T00:02:11.479Z,99565.27
2018-12-03T00:04:42.999Z,99565.44
2018-12-03T00:07:14.655Z,99567.37
2018-12-03T00:09:43.956Z,99562.98
2018-12-03T00:12:13.255Z,99562.97
2018-12-03T00:14:42.247Z,99560.84
2018-12-03T00:17:12.060Z,99565.09
2018-12-03T00:19:41.050Z,99564.45
2018-12-03T00:22:10.045Z,99549.37
2018-12-03T00:24:39.900Z,99552.83
2018-12-03T00:27:08.967Z,99560.38
2018-12-03T00:29:38.663Z,99551.17
2018-12-03T00:32:08.064Z,99551.49
2018-12-03T00:34:37.056Z,99539.22
2018-12-03T00:37:06.111Z,99548.38
2018-12-03T00:39:34.838Z,99547.74
2018-12-03T00:42:04.302Z,99548.38
2018-12-03T00:44:33.617Z,99544.77
2018-12-03T00:47:02.479Z,99544.95
2018-12-03T00:49:31.489Z,99546.42
2018-12-03T00:52:00.197Z,99549.69
2018-12-03T00:54:29.197Z,99553.50
2018-12-03T00:56:58.259Z,99549.72
2018-12-03T00:59:27.659Z,99555.26
2018-12-03T01:01:56.678Z,99546.75
2018-12-03T01:04:25.745Z,99555.30
2018-12-03T01:06:54.421Z,99552.35
2018-12-03T01:09:23.467Z,99545.47
2018-12-03T01:11:52.767Z,99554.14
2018-12-03T01:14:21.759Z,99550.05
2018-12-03T01:16:50.430Z,99552.99
2018-12-03T01:19:19.746Z,99548.74
2018-12-03T01:21:48.764Z,99552.98
2018-12-03T01:24:18.346Z,99546.59
2018-12-03T01:26:48.189Z,99557.88
2018-12-03T01:29:17.559Z,99553.64
2018-12-03T01:31:46.864Z,99553.80
2018-12-03T01:34:15.530Z,99557.56
2018-12-03T01:36:44.573Z,99554.45
2018-12-03T01:39:14.340Z,99561.17
2018-12-03T01:41:44.267Z,99559.04
2018-12-03T01:44:13.771Z,99558.23
2018-12-03T01:46:42.833Z,99561.19
2018-12-03T01:49:12.170Z,99559.69
2018-12-03T01:51:43.102Z,99559.87
2018-12-03T01:54:12.228Z,99563.67
2018-12-03T01:56:41.192Z,99561.84
2018-12-03T01:59:10.405Z,99553.63
2018-12-03T02:01:39.058Z,99557.88
2018-12-03T02:04:08.069Z,99562.00
2018-12-03T02:06:38.467Z,99555.28
2018-12-03T02:09:09.217Z,99561.02
2018-12-03T02:11:38.189Z,99561.19
2018-12-03T02:14:07.740Z,99557.27
2018-12-03T02:16:37.439Z,99557.27
2018-12-03T02:19:06.587Z,99555.61
2018-12-03T02:21:35.278Z,99555.94
2018-12-03T02:24:04.618Z,99548.74
2018-12-03T02:26:33.921Z,99547.89
2018-12-03T02:29:02.595Z,99550.20
2018-12-03T02:31:31.907Z,99540.85
2018-12-03T02:34:00.856Z,99548.41
2018-12-03T02:36:30.193Z,99545.28
2018-12-03T02:38:59.868Z,99539.89
2018-12-03T02:41:28.899Z,99532.14
2018-12-03T02:43:57.659Z,99534.64
2018-12-03T02:46:27.063Z,99535.13
2018-12-03T02:48:56.799Z,99537.91
2018-12-03T02:51:25.790Z,99532.66
2018-12-03T02:53:54.460Z,99531.82
2018-12-03T02:56:23.157Z,99531.34
2018-12-03T02:58:52.140Z,99533.64
2018-12-03T03:01:21.107Z,99532.34
2018-12-03T03:03:50.121Z,99526.78
2018-12-03T03:06:19.511Z,99519.21
2018-12-03T03:08:48.211Z,99517.09
2018-12-03T03:11:16.892Z,99517.09
2018-12-03T03:13:45.987Z,99519.86
2018-12-03T03:16:16.235Z,99504.79
2018-12-03T03:18:45.539Z,99513.97
2018-12-03T03:21:15.249Z,99505.08
2018-12-03T03:23:43.948Z,99508.39
2018-12-03T03:26:13.335Z,99502.45
2018-12-03T03:28:42.031Z,99509.67
2018-12-03T03:31:11.013Z,99507.71
2018-12-03T03:33:40.743Z,99501.68
2018-12-03T03:36:09.420Z,99506.05
2018-12-03T03:38:38.486Z,99498.23
2018-12-03T03:41:07.655Z,99495.92
2018-12-03T03:43:36.765Z,99495.45
2018-12-03T03:46:05.946Z,99493.29
2018-12-03T03:48:34.959Z,99494.44
2018-12-03T03:51:03.935Z,99488.72
2018-12-03T03:53:32.748Z,99488.71
2018-12-03T03:56:01.714Z,99487.89
2018-12-03T03:58:30.728Z,99489.04
2018-12-03T04:00:59.698Z,99488.69
2018-12-03T04:03:28.736Z,99488.41
2018-12-03T04:05:58.860Z,99490.67
2018-12-03T04:08:27.927Z,99485.10
2018-12-03T04:10:56.964Z,99492.50
2018-12-03T04:13:25.664Z,99491.36
2018-12-03T04:15:54.311Z,99496.92
2018-12-03T04:18:23.500Z,99496.87
2018-12-03T04:20:52.175Z,99497.55
2018-12-03T04:23:21.221Z,99495.11
2018-12-03T04:25:49.894Z,99493.94
2018-12-03T04:28:21.308Z,99489.70
2018-12-03T04:30:49.985Z,99486.71
2018-12-03T04:33:18.980Z,99476.71
2018-12-03T04:35:47.956Z,99473.64
2018-12-03T04:38:16.667Z,99473.95
2018-12-03T04:40:45.636Z,99469.70
2018-12-03T04:43:14.653Z,99471.66
2018-12-03T04:45:43.971Z,99464.12
2018-12-03T04:48:12.646Z,99464.75
2018-12-03T04:50:42.068Z,99474.61
2018-12-03T04:53:11.055Z,99459.69
2018-12-03T04:55:40.352Z,99455.10
2018-12-03T04:58:09.029Z,99458.20
2018-12-03T05:00:38.338Z,99458.36
2018-12-03T05:03:07.371Z,99460.98
2018-12-03T05:05:36.735Z,99458.20
2018-12-03T05:08:05.910Z,99455.43
2018-12-03T05:10:35.330Z,99450.32
2018-12-03T05:13:04.427Z,99453.31
2018-12-03T05:15:34.276Z,99447.34
2018-12-03T05:18:03.560Z,99454.23
2018-12-03T05:20:32.944Z,99444.41
2018-12-03T05:23:01.998Z,99444.37
2018-12-03T05:25:31.339Z,99446.88
2018-12-03T05:28:00.332Z,99443.77
2018-12-03T05:30:29.011Z,99440.96
2018-12-03T05:32:57.718Z,99437.17
2018-12-03T05:35:29.936Z,99444.41
2018-12-03T05:37:58.844Z,99440.77
2018-12-03T05:40:31.502Z,99440.12
2018-12-03T05:43:00.512Z,99434.38
2018-12-03T05:45:29.482Z,99420.75
2018-12-03T05:47:58.196Z,99420.44
2018-12-03T05:50:27.260Z,99424.34
2018-12-03T05:52:56.278Z,99425.36
2018-12-03T05:55:25.351Z,99425.69
2018-12-03T05:57:54.699Z,99414.72
2018-12-03T06:00:24.521Z,99415.08
2018-12-03T06:02:53.504Z,99417.77
2018-12-03T06:05:23.021Z,99419.09
2018-12-03T06:07:52.097Z,99416.42
2018-12-03T06:10:21.623Z,99417.11
2018-12-03T06:12:52.337Z,99412.73
2018-12-03T06:15:21.462Z,99407.20
2018-12-03T06:17:51.877Z,99410.44
2018-12-03T06:20:21.871Z,99407.23
2018-12-03T06:22:53.942Z,99408.38
2018-12-03T06:25:29.647Z,99406.87
2018-12-03T06:27:59.715Z,99408.91
2018-12-03T06:30:29.015Z,99410.22
2018-12-03T06:32:58.418Z,99405.25
2018-12-03T06:35:27.502Z,99408.19
2018-12-03T06:37:56.171Z,99415.03
2018-12-03T06:40:29.542Z,99412.77
2018-12-03T06:42:59.422Z,99414.08
2018-12-03T06:45:28.857Z,99410.19
2018-12-03T06:48:02.657Z,99416.53
2018-12-03T06:50:31.740Z,99410.11
2018-12-03T06:53:01.110Z,99411.83
2018-12-03T06:55:30.415Z,99406.83
2018-12-03T06:57:59.815Z,99413.44
2018-12-03T07:00:29.223Z,99415.84
2018-12-03T07:02:58.416Z,99410.46
2018-12-03T07:05:27.970Z,99419.11
2018-12-03T07:07:58.206Z,99420.96
2018-12-03T07:10:27.533Z,99422.91
2018-12-03T07:12:59.267Z,99423.58
2018-12-03T07:15:29.419Z,99423.59
2018-12-03T07:17:59.134Z,99424.85
2018-12-03T07:20:28.227Z,99434.73
2018-12-03T07:22:57.526Z,99420.91
2018-12-03T07:25:27.239Z,99415.53
2018-12-03T07:27:56.164Z,99430.42
2018-12-03T07:30:26.148Z,99430.78
2018-12-03T07:32:55.377Z,99436.04
2018-12-03T07:35:24.702Z,99434.19
2018-12-03T07:37:57.238Z,99439.66
2018-12-03T07:40:26.571Z,99442.93
2018-12-03T07:42:55.565Z,99442.75
2018-12-03T07:45:25.262Z,99453.47
2018-12-03T07:47:54.270Z,99462.16
2018-12-03T07:50:24.474Z,99456.55
2018-12-03T07:52:53.687Z,99453.92
2018-12-03T07:55:24.162Z,99452.16
2018-12-03T07:58:15.874Z,99451.80
2018-12-03T08:00:47.199Z,99470.19
2018-12-03T08:03:17.146Z,99468.23
2018-12-03T08:05:47.417Z,99456.41
2018-12-03T08:08:16.974Z,99463.36
2018-12-03T08:10:50.947Z,99458.58
2018-12-03T08:13:21.865Z,99474.79
2018-12-03T08:15:51.243Z,99473.83
2018-12-03T08:18:21.589Z,99476.46
2018-12-03T08:21:10.155Z,99486.49
2018-12-03T08:24:02.667Z,99485.20
2018-12-03T08:26:32.146Z,99473.86
2018-12-03T08:29:01.456Z,99473.37
2018-12-03T08:31:30.851Z,99481.42
2018-12-03T08:33:59.885Z,99488.65
2018-12-03T08:36:28.947Z,99480.97
2018-12-03T08:38:59.790Z,99483.75
2018-12-03T08:41:29.896Z,99488.33
2018-12-03T08:43:59.200Z,99505.27
2018-12-03T08:46:28.498Z,99494.91
2018-12-03T08:48:58.108Z,99494.22
2018-12-03T08:51:27.710Z,99500.27
2018-12-03T08:53:57.044Z,99506.41
2018-12-03T08:56:25.789Z,99505.53
2018-12-03T08:58:55.211Z,99507.03
2018-12-03T09:01:24.454Z,99502.86
2018-12-03T09:04:13.749Z,99504.87
2018-12-03T09:06:42.426Z,99503.70
2018-12-03T09:09:13.907Z,99512.42
2018-12-03T09:11:47.373Z,99517.17
2018-12-03T09:14:16.664Z,99518.69
2018-12-03T09:16:45.568Z,99518.21
2018-12-03T09:19:14.547Z,99521.30
2018-12-03T09:21:43.244Z,99521.48
2018-12-03T09:24:12.295Z,99523.78
2018-12-03T09:26:42.523Z,99512.96
2018-12-03T09:29:11.219Z,99506.11
2018-12-03T09:31:40.229Z,99525.11
2018-12-03T09:34:09.289Z,99526.91
2018-12-03T09:36:39.355Z,99528.07
2018-12-03T09:39:15.934Z,99518.58
2018-12-03T09:41:45.480Z,99528.91
2018-12-03T09:44:14.166Z,99517.09
2018-12-03T09:46:42.967Z,99519.33
2018-12-03T09:49:11.926Z,99526.69
2018-12-03T09:51:40.598Z,99525.35
2018-12-03T09:54:10.723Z,99523.42
2018-12-03T09:56:44.350Z,99525.70
2018-12-03T09:59:17.828Z,99532.27
2018-12-03T10:01:49.133Z,99525.77
2018-12-03T10:04:23.238Z,99537.25
2018-12-03T10:06:52.410Z,99525.79
2018-12-03T10:09:21.090Z,99528.06
2018-12-03T10:11:50.983Z,99529.37
2018-12-03T10:14:21.767Z,99527.41
2018-12-03T10:16:50.451Z,99531.33
2018-12-03T10:19:19.542Z,99515.76
2018-12-03T10:21:48.486Z,99505.44
2018-12-03T10:24:18.228Z,99527.41
2018-12-03T10:26:47.069Z,99529.23
2018-12-03T10:29:17.893Z,99521.66
2018-12-03T10:31:48.569Z,99529.39
2018-12-03T10:34:21.045Z,99531.19
2018-12-03T10:36:57.777Z,99526.78
2018-12-03T10:39:28.853Z,99520.19
2018-12-03T10:42:07.572Z,99528.72
2018-12-03T10:44:36.873Z,99518.07
2018-12-03T10:47:06.245Z,99523.96
2018-12-03T10:49:35.150Z,99524.80
2018-12-03T10:52:04.086Z,99519.36
2018-12-03T10:54:37.965Z,99513.28
2018-12-03T10:57:09.630Z,99524.78
2018-12-03T10:59:38.619Z,99519.86
2018-12-03T11:02:30.021Z,99525.47
2018-12-03T11:05:16.944Z,99519.21
2018-12-03T11:07:46.969Z,99519.69
2018-12-03T11:10:15.976Z,99516.91
2018-12-03T11:12:50.873Z,99514.96
2018-12-03T11:15:20.543Z,99523.48
2018-12-03T11:17:49.642Z,99517.24
2018-12-03T11:20:20.295Z,99517.58
2018-12-03T11:22:49.625Z,99512.98
2018-12-03T11:25:19.314Z,99520.34
2018-12-03T11:27:49.818Z,99512.98
2018-12-03T11:30:19.235Z,99510.34
2018-12-03T11:32:48.460Z,99518.71
2018-12-03T11:35:23.433Z,99512.02
2018-12-03T11:37:54.492Z,99521.67
2018-12-03T11:40:43.664Z,99516.91
2018-12-03T11:43:12.340Z,99535.09
2018-12-03T11:45:41.390Z,99516.27
2018-12-03T11:48:11.448Z,99523.33
2018-12-03T11:50:40.331Z,99519.86
2018-12-03T11:53:09.329Z,99532.98
2018-12-03T11:55:38.380Z,99527.25
2018-12-03T11:58:07.409Z,99524.12
2018-12-03T12:00:36.066Z,99524.60
2018-12-03T12:03:06.646Z,99523.78
2018-12-03T12:05:36.001Z,99535.76
2018-12-03T12:08:05.281Z,99519.55
2018-12-03T12:10:33.959Z,99523.16
2018-12-03T12:13:05.870Z,99523.82
2018-12-03T12:15:36.540Z,99511.66
2018-12-03T12:18:05.332Z,99518.54
2018-12-03T12:20:34.031Z,99521.86
2018-12-03T12:23:02.736Z,99512.00
2018-12-03T12:25:31.776Z,99520.87
2018-12-03T12:28:01.069Z,99517.41
2018-12-03T12:30:30.068Z,99521.52
2018-12-03T12:32:59.414Z,99515.95
2018-12-03T12:35:28.114Z,99514.28
2018-12-03T12:37:58.624Z,99511.69
2018-12-03T12:40:27.921Z,99511.49
2018-12-03T12:42:57.938Z,99514.64
2018-12-03T12:45:43.638Z,99520.52
2018-12-03T12:48:13.229Z,99532.99
2018-12-03T12:50:42.510Z,99531.00
2018-12-03T12:53:11.192Z,99518.72
2018-12-03T12:55:40.462Z,99522.32
2018-12-03T12:58:09.574Z,99521.50
2018-12-03T13:00:38.576Z,99526.10
2018-12-03T13:03:07.487Z,99520.02
2018-12-03T13:05:36.192Z,99525.45
2018-12-03T13:08:04.934Z,99517.76
2018-12-03T13:10:34.322Z,99527.72
2018-12-03T13:13:03.377Z,99516.90
2018-12-03T13:15:32.050Z,99519.72
2018-12-03T13:18:00.736Z,99515.27
2018-12-03T13:20:30.380Z,99519.22
2018-12-03T13:22:59.433Z,99517.08
2018-12-03T13:25:28.567Z,99528.90
2018-12-03T13:27:58.143Z,99522.49
2018-12-03T13:30:27.570Z,99516.60
2018-12-03T13:32:56.919Z,99516.92
2018-12-03T13:35:25.787Z,99516.41
2018-12-03T13:37:55.504Z,99516.75
2018-12-03T13:40:24.517Z,99522.16
2018-12-03T13:42:54.767Z,99523.16
2018-12-03T13:45:26.006Z,99514.28
2018-12-03T13:47:57.075Z,99519.05
2018-12-03T13:50:26.070Z,99518.06
2018-12-03T13:52:56.627Z,99513.97
2018-12-03T13:55:25.714Z,99533.63
2018-12-03T13:58:04.122Z,99527.58
2018-12-03T14:00:33.050Z,99528.41
2018-12-03T14:03:26.225Z,99524.78
2018-12-03T14:06:26.701Z,99536.59
2018-12-03T14:09:41.237Z,99535.61
2018-12-03T14:12:46.605Z,99527.73
2018-12-03T14:15:48.317Z,99528.89
2018-12-03T14:18:40.931Z,99533.63
2018-12-03T14:21:31.984Z,99538.23
2018-12-03T14:24:03.842Z,99528.71
2018-12-03T14:26:33.406Z,99541.34
2018-12-03T14:29:02.449Z,99545.59
2018-12-03T14:31:31.744Z,99549.70
2018-12-03T14:34:00.469Z,99543.80
2018-12-03T14:36:29.485Z,99547.56
2018-12-03T14:38:58.524Z,99558.56
2018-12-03T14:41:27.619Z,99539.52
2018-12-03T14:43:57.534Z,99547.89
2018-12-03T14:46:27.975Z,99557.87
2018-12-03T14:48:56.949Z,99547.72
2018-12-03T14:51:25.644Z,99556.88
2018-12-03T14:53:54.941Z,99548.20
2018-12-03T14:56:24.042Z,99552.63
2018-12-03T14:58:53.042Z,99555.25
2018-12-03T15:01:22.492Z,99553.95
2018-12-03T15:03:51.520Z,99556.56
2018-12-03T15:06:20.722Z,99562.47
2018-12-03T15:08:50.106Z,99560.02
2018-12-03T15:11:19.519Z,99544.76
2018-12-03T15:13:48.518Z,99546.25
2018-12-03T15:16:17.200Z,99555.25
2018-12-03T15:18:46.339Z,99551.31
2018-12-03T15:21:15.639Z,99555.91
2018-12-03T15:23:44.691Z,99560.48
2018-12-03T15:26:13.993Z,99559.37
2018-12-03T15:28:42.690Z,99567.53
2018-12-03T15:31:11.369Z,99541.12
2018-12-03T15:33:40.434Z,99557.54
2018-12-03T15:36:09.374Z,99560.14
2018-12-03T15:38:38.520Z,99556.23
2018-12-03T15:41:07.898Z,99560.48
2018-12-03T15:43:38.079Z,99557.84
2018-12-03T15:46:07.349Z,99548.01
2018-12-03T15:48:36.393Z,99543.91
2018-12-03T15:51:05.806Z,99547.99
2018-12-03T15:53:35.689Z,99548.00
2018-12-03T15:56:04.980Z,99559.13
2018-12-03T15:58:34.381Z,99563.07
2018-12-03T16:01:03.340Z,99563.92
2018-12-03T16:03:34.414Z,99559.99
2018-12-03T16:06:03.727Z,99566.52
2018-12-03T16:08:32.704Z,99569.30
2018-12-03T16:11:02.009Z,99569.62
2018-12-03T16:13:31.001Z,99573.55
2018-12-03T16:15:59.730Z,99560.73
2018-12-03T16:18:28.425Z,99560.73
2018-12-03T16:20:57.103Z,99570.11
2018-12-03T16:23:25.876Z,99564.69
2018-12-03T16:25:54.583Z,99566.34
2018-12-03T16:28:23.584Z,99570.93
2018-12-03T16:30:52.972Z,99561.08
2018-12-03T16:33:22.734Z,99570.46
2018-12-03T16:35:51.966Z,99560.11
2018-12-03T16:38:21.026Z,99560.11
2018-12-03T16:40:49.703Z,99575.63
2018-12-03T16:43:19.836Z,99580.27
2018-12-03T16:45:49.235Z,99585.95
2018-12-03T16:48:18.740Z,99588.21
2018-12-03T16:50:48.040Z,99595.09
2018-12-03T16:53:18.366Z,99588.56
2018-12-03T16:55:48.278Z,99593.84
2018-12-03T16:58:17.407Z,99591.35
2018-12-03T17:00:46.775Z,99580.35
2018-12-03T17:03:15.772Z,99595.12
2018-12-03T17:05:44.474Z,99597.09
2018-12-03T17:08:15.183Z,99593.16
2018-12-03T17:10:44.899Z,99600.52
2018-12-03T17:13:14.615Z,99607.27
2018-12-03T17:15:44.012Z,99609.69
2018-12-03T17:18:15.297Z,99615.13
2018-12-03T17:21:29.846Z,99622.63
2018-12-03T17:24:20.344Z,99625.94
2018-12-03T17:26:49.531Z,99629.41
2018-12-03T17:29:19.096Z,99637.04
2018-12-03T17:31:48.419Z,99621.45
2018-12-03T17:34:17.146Z,99627.25
2018-12-03T17:36:46.190Z,99629.20
2018-12-03T17:39:15.498Z,99624.35
2018-12-03T17:41:46.388Z,99629.23
2018-12-03T17:44:16.525Z,99630.52
2018-12-03T17:46:45.207Z,99638.38
2018-12-03T17:49:13.912Z,99636.77
2018-12-03T17:51:42.876Z,99634.16
2018-12-03T17:54:11.883Z,99641.20
2018-12-03T17:56:41.985Z,99640.34
2018-12-03T17:59:10.995Z,99639.26
2018-12-03T18:01:40.324Z,99638.73
2018-12-03T18:04:14.744Z,99634.50
2018-12-03T18:06:44.226Z,99642.42
2018-12-03T18:09:12.972Z,99644.36
2018-12-03T18:11:41.828Z,99654.47
2018-12-03T18:14:10.558Z,99649.25
2018-12-03T18:16:39.916Z,99651.91
2018-12-03T18:19:09.510Z,99652.36
2018-12-03T18:21:38.471Z,99650.50
2018-12-03T18:24:07.508Z,99648.83
2018-12-03T18:26:37.591Z,99641.39
2018-12-03T18:29:07.643Z,99646.27
2018-12-03T18:31:36.377Z,99649.65
2018-12-03T18:34:05.731Z,99651.12
2018-12-03T18:36:35.136Z,99647.69
2018-12-03T18:39:05.012Z,99645.88
2018-12-03T18:41:34.715Z,99645.88
2018-12-03T18:44:03.688Z,99640.97
2018-12-03T18:46:32.379Z,99644.61
2018-12-03T18:49:24.122Z,99634.72
2018-12-03T18:51:52.839Z,99646.20
2018-12-03T18:54:22.159Z,99647.68
2018-12-03T18:56:50.851Z,99659.34
2018-12-03T18:59:20.234Z,99666.97
2018-12-03T19:01:49.307Z,99668.64
2018-12-03T19:04:18.694Z,99662.95
2018-12-03T19:06:47.728Z,99671.42
2018-12-03T19:09:16.840Z,99665.16
2018-12-03T19:11:46.183Z,99662.62
2018-12-03T19:14:15.627Z,99661.64
2018-12-03T19:16:44.770Z,99663.24
2018-12-03T19:19:14.128Z,99656.95
2018-12-03T19:21:43.674Z,99668.73
2018-12-03T19:24:13.030Z,99664.80
2018-12-03T19:26:42.151Z,99664.84
2018-12-03T19:29:12.038Z,99672.00
2018-12-03T19:31:42.651Z,99665.58
2018-12-03T19:34:13.519Z,99666.60
2018-12-03T19:36:44.621Z,99664.47
2018-12-03T19:39:31.013Z,99652.59
2018-12-03T19:41:59.710Z,99667.05
2018-12-03T19:44:28.740Z,99665.84
2018-12-03T19:46:57.478Z,99662.87
2018-12-03T19:49:27.285Z,99668.02
2018-12-03T19:51:57.702Z,99670.92
2018-12-03T19:54:31.359Z,99672.89
2018-12-03T19:57:02.738Z,99674.84
2018-12-03T19:59:35.144Z,99681.08
2018-12-03T20:02:04.183Z,99680.95
2018-12-03T20:04:52.523Z,99684.30
2018-12-03T20:07:21.916Z,99693.07
2018-12-03T20:09:55.083Z,99693.84
2018-12-03T20:12:24.119Z,99690.94
2018-12-03T20:14:53.164Z,99692.58
2018-12-03T20:17:28.636Z,99692.58
2018-12-03T20:19:58.057Z,99698.80
2018-12-03T20:22:31.736Z,99698.91
2018-12-03T20:25:00.414Z,99705.02
2018-12-03T20:27:53.987Z,99708.28
2018-12-03T20:31:06.263Z,99710.95
2018-12-03T20:33:51.658Z,99739.30
2018-12-03T20:37:17.114Z,99703.39
2018-12-03T20:40:20.791Z,99703.39
2018-12-03T20:43:11.140Z,99706.70
2018-12-03T20:46:32.862Z,99710.95
2018-12-03T20:49:22.917Z,99710.95
2018-12-03T20:51:57.543Z,99725.03
2018-12-03T20:54:27.128Z,99725.03
2018-12-03T20:56:56.272Z,99722.23
2018-12-03T20:59:25.298Z,99727.73
2018-12-03T21:01:54.356Z,99729.59
2018-12-03T21:04:25.655Z,99726.11
2018-12-03T21:06:54.743Z,99735.48
2018-12-03T21:09:24.702Z,99746.97
2018-12-03T21:11:53.742Z,99751.70
2018-12-03T21:14:22.783Z,99752.34
2018-12-03T21:16:52.035Z,99754.56
2018-12-03T21:19:20.725Z,99769.53
2018-12-03T21:21:50.749Z,99770.51
2018-12-03T21:24:22.047Z,99771.91
2018-12-03T21:26:51.140Z,99791.69
2018-12-03T21:29:19.818Z,99784.72
2018-12-03T21:31:48.883Z,99785.33
2018-12-03T21:34:18.061Z,99798.46
2018-12-03T21:36:46.851Z,99799.20
2018-12-03T21:39:16.253Z,99799.64
2018-12-03T21:41:45.250Z,99804.93
2018-12-03T21:44:14.259Z,99799.54
2018-12-03T21:46:43.854Z,99791.62
2018-12-03T21:49:12.617Z,99808.10
2018-12-03T21:52:25.091Z,99816.83
2018-12-03T21:54:53.517Z,99829.57
2018-12-03T21:57:20.880Z,99818.39
2018-12-03T21:59:48.187Z,99822.55
2018-12-03T22:02:15.744Z,99823.14
2018-12-03T22:04:44.152Z,99838.14
2018-12-03T22:07:11.446Z,99824.68
2018-12-03T22:09:38.778Z,99836.48
2018-12-03T22:12:06.054Z,99846.95
2018-12-03T22:14:33.610Z,99844.30
2018-12-03T22:17:00.911Z,99840.25
2018-12-03T22:19:28.211Z,99839.97
2018-12-03T22:21:55.499Z,99837.02
2018-12-03T22:24:22.827Z,99837.45
2018-12-03T22:26:50.116Z,99835.81
2018-12-03T22:29:17.412Z,99830.22
2018-12-03T22:31:46.613Z,99840.87
2018-12-03T22:34:13.931Z,99839.54
2018-12-03T22:36:41.243Z,99840.66
2018-12-03T22:39:08.551Z,99845.03
2018-12-03T22:41:35.858Z,99851.77
2018-12-03T22:44:03.178Z,99854.47
2018-12-03T22:46:30.531Z,99862.47
2018-12-03T22:48:57.965Z,99867.63
2018-12-03T22:51:25.295Z,99865.63
2018-12-03T22:53:52.635Z,99873.74
2018-12-03T22:56:20.319Z,99878.61
2018-12-03T22:58:47.602Z,99884.72
2018-12-03T23:01:19.491Z,99883.83
2018-12-03T23:03:47.129Z,99896.05
2018-12-03T23:06:14.424Z,99909.47
2018-12-03T23:08:41.868Z,99901.20
2018-12-03T23:11:09.180Z,99911.11
2018-12-03T23:13:36.511Z,99915.13
2018-12-03T23:16:03.903Z,99923.97
2018-12-03T23:18:31.383Z,99921.81
2018-12-03T23:20:58.708Z,99920.34
2018-12-03T23:23:43.015Z,99934.13
2018-12-03T23:26:10.330Z,99945.70
2018-12-03T23:28:37.638Z,99938.83
2018-12-03T23:31:05.183Z,99946.76
2018-12-03T23:33:32.516Z,99953.09
2018-12-03T23:35:59.824Z,99959.55
2018-12-03T23:38:27.546Z,99955.78
2018-12-03T23:40:55.274Z,99968.20
2018-12-03T23:43:22.578Z,99970.87
2018-12-03T23:45:49.992Z,99960.65
2018-12-03T23:48:17.435Z,99977.09
2018-12-03T23:50:48.090Z,99985.08
2018-12-03T23:53:17.754Z,99986.22
2018-12-03T23:55:45.390Z,99997.61
2018-12-03T23:58:13.398Z,99991.75
